CheckWX is a tool to help pilots better visualize weather data.  It is not intended as a substitute for an official pre-flight weather briefing.

20:22:08 UTC

KBKW TAF
Raleigh County Memorial Airport
Beckley, West Virginia, USA
KBKW 242322Z 2500/2524 00000KT P6SM VCSH SCT050 BKN150 FM250200 00000KT P6SM BKN100 FM251300 00000KT P6SM SCT100 FM251900 00000KT P6SM SCT035

May-25@
00:00 UTC

May-25 @ 00:00 UTC

May-25@
02:00 UTC

May-25 @ 02:00 UTC

TAF KBKW 242322Z 2500/2524 00000KT P6SM VCSH SCT050 BKN150

Expired

Conditions
Area Showers
Cloud Levels
  • Scattered at 5,000' AGL
  • Broken at 15,000' AGL

May-25@
02:00 UTC

May-25 @ 02:00 UTC

May-25@
13:00 UTC

May-25 @ 13:00 UTC

FM250200 00000KT P6SM BKN100

Expired

Cloud Levels
  • Broken at 10,000' AGL

May-25@
13:00 UTC

May-25 @ 13:00 UTC

May-25@
19:00 UTC

May-25 @ 19:00 UTC

FM251300 00000KT P6SM SCT100

Expired

Cloud Levels
  • Scattered at 10,000' AGL

May-25@
19:00 UTC

May-25 @ 19:00 UTC

May-26@
00:00 UTC

May-26 @ 00:00 UTC

FM251900 00000KT P6SM SCT035

From

From Standard forecast or significant change

Cloud Levels
  • Scattered at 3,500' AGL